createdAt,value
2022-08-23T00:02:53.003Z,1.80
2022-08-23T00:07:07.425Z,1.50
2022-08-23T00:11:34.799Z,1.50
2022-08-23T00:15:46.652Z,2.03
2022-08-23T00:19:58.199Z,1.90
2022-08-23T00:24:12.191Z,1.95
2022-08-23T00:28:24.968Z,1.60
2022-08-23T00:32:38.131Z,1.98
2022-08-23T00:36:50.538Z,2.10
2022-08-23T00:41:03.061Z,1.70
2022-08-23T00:45:38.049Z,1.95
2022-08-23T00:50:01.563Z,1.70
2022-08-23T00:54:14.598Z,1.85
2022-08-23T00:58:26.880Z,1.80
2022-08-23T01:02:39.628Z,2.00
2022-08-23T01:06:59.231Z,2.15
2022-08-23T01:11:16.070Z,2.00
2022-08-23T01:15:48.650Z,2.08
2022-08-23T01:20:06.024Z,1.90
2022-08-23T01:24:19.245Z,2.30
2022-08-23T01:28:51.764Z,1.90
2022-08-23T01:33:06.296Z,2.33
2022-08-23T01:37:20.256Z,1.77
2022-08-23T01:41:31.835Z,1.85
2022-08-23T01:45:43.661Z,1.90
2022-08-23T01:49:56.952Z,2.10
2022-08-23T01:54:08.645Z,2.08
2022-08-23T01:58:21.410Z,1.60
2022-08-23T02:02:33.351Z,1.70
2022-08-23T02:06:45.775Z,2.00
2022-08-23T02:11:09.011Z,1.90
2022-08-23T02:15:20.636Z,1.73
2022-08-23T02:19:37.792Z,2.25
2022-08-23T02:23:51.516Z,1.85
2022-08-23T02:28:04.492Z,1.90
2022-08-23T02:32:17.911Z,2.60
2022-08-23T02:36:29.534Z,2.10
2022-08-23T02:40:42.367Z,2.25
2022-08-23T02:44:55.470Z,2.03
2022-08-23T02:49:07.569Z,2.35
2022-08-23T02:53:19.586Z,2.45
2022-08-23T02:57:31.509Z,2.33
2022-08-23T03:01:45.374Z,1.95
2022-08-23T03:06:24.901Z,2.55
2022-08-23T03:10:38.282Z,1.90
2022-08-23T03:14:52.028Z,2.40
2022-08-23T03:19:04.521Z,2.10
2022-08-23T03:23:16.421Z,2.03
2022-08-23T03:27:28.250Z,2.30
2022-08-23T03:31:41.595Z,2.50
2022-08-23T03:36:01.386Z,2.10
2022-08-23T03:40:14.732Z,2.28
2022-08-23T03:44:26.580Z,2.55
2022-08-23T03:48:39.071Z,2.63
2022-08-23T03:52:51.238Z,2.63
2022-08-23T03:57:07.263Z,2.53
2022-08-23T04:01:20.411Z,2.47
2022-08-23T04:05:32.057Z,2.15
2022-08-23T04:09:54.434Z,2.67
2022-08-23T04:14:08.517Z,2.25
2022-08-23T04:18:21.403Z,2.30
2022-08-23T04:22:33.592Z,2.60
2022-08-23T04:26:45.762Z,2.33
2022-08-23T04:31:02.330Z,2.17
2022-08-23T04:35:15.666Z,2.70
2022-08-23T04:39:27.854Z,2.60
2022-08-23T04:43:41.336Z,2.53
2022-08-23T04:47:55.719Z,2.63
2022-08-23T04:52:07.466Z,2.75
2022-08-23T04:56:19.176Z,2.90
2022-08-23T05:00:31.670Z,2.60
2022-08-23T05:04:44.623Z,3.00
2022-08-23T05:08:58.049Z,3.83
2022-08-23T05:13:11.517Z,3.63
2022-08-23T05:17:23.238Z,3.60
2022-08-23T05:21:34.932Z,4.18
2022-08-23T05:25:51.544Z,4.63
2022-08-23T05:30:19.478Z,4.47
2022-08-23T05:34:31.708Z,4.40
2022-08-23T05:38:48.346Z,3.78
2022-08-23T05:43:00.246Z,4.57
2022-08-23T05:47:15.574Z,3.92
2022-08-23T05:51:38.483Z,4.20
2022-08-23T05:55:50.776Z,4.72
2022-08-23T06:00:15.350Z,3.70
2022-08-23T06:04:37.647Z,3.83
2022-08-23T06:08:49.291Z,3.92
2022-08-23T06:13:02.733Z,3.80
2022-08-23T06:17:14.352Z,4.18
2022-08-23T06:21:26.278Z,4.57
2022-08-23T06:25:38.813Z,4.25
2022-08-23T06:29:58.840Z,4.32
2022-08-23T06:34:24.288Z,4.00
2022-08-23T06:38:59.014Z,4.32
2022-08-23T06:43:39.119Z,3.58
2022-08-23T06:48:18.819Z,4.30
2022-08-23T06:52:30.703Z,3.92
2022-08-23T06:56:58.125Z,4.63
2022-08-23T07:01:44.098Z,3.85
2022-08-23T07:05:56.788Z,4.20
2022-08-23T07:10:11.564Z,4.13
2022-08-23T07:14:24.211Z,4.88
2022-08-23T07:18:37.433Z,4.35
2022-08-23T07:22:49.281Z,4.70
2022-08-23T07:27:06.642Z,4.38
2022-08-23T07:31:27.228Z,4.60
2022-08-23T07:35:48.128Z,4.50
2022-08-23T07:40:00.269Z,4.82
2022-08-23T07:44:12.927Z,4.28
2022-08-23T07:48:52.538Z,4.30
2022-08-23T07:53:07.971Z,4.18
2022-08-23T07:57:19.989Z,4.57
2022-08-23T08:01:38.307Z,4.57
2022-08-23T08:05:50.461Z,4.40
2022-08-23T08:10:02.385Z,4.65
2022-08-23T08:14:17.143Z,5.40
2022-08-23T08:18:41.290Z,4.05
2022-08-23T08:23:16.068Z,4.47
2022-08-23T08:27:46.323Z,4.10
2022-08-23T08:31:58.045Z,4.38
2022-08-23T08:36:29.105Z,4.57
2022-08-23T08:40:41.999Z,4.38
2022-08-23T08:44:59.210Z,4.32
2022-08-23T08:49:44.164Z,5.50
2022-08-23T08:53:57.753Z,4.30
2022-08-23T08:58:26.427Z,4.47
2022-08-23T09:02:39.050Z,4.22
2022-08-23T09:07:09.048Z,3.95
2022-08-23T09:11:45.568Z,3.85
2022-08-23T09:16:00.869Z,3.58
2022-08-23T09:20:14.777Z,3.92
2022-08-23T09:24:30.385Z,4.47
2022-08-23T09:29:21.555Z,3.63
2022-08-23T09:33:46.021Z,3.30
2022-08-23T09:38:13.890Z,3.28
2022-08-23T09:42:37.005Z,3.63
2022-08-23T09:46:50.269Z,3.33
2022-08-23T09:51:22.762Z,3.75
2022-08-23T09:55:55.118Z,2.95
2022-08-23T10:00:15.920Z,3.50
2022-08-23T10:04:40.207Z,3.10
2022-08-23T10:08:55.342Z,3.78
2022-08-23T10:13:09.829Z,2.80
2022-08-23T10:17:37.788Z,3.05
2022-08-23T10:21:59.687Z,3.30
2022-08-23T10:26:22.133Z,2.60
2022-08-23T10:30:48.988Z,3.15
2022-08-23T10:35:25.804Z,3.45
2022-08-23T10:39:48.458Z,2.95
2022-08-23T10:44:09.643Z,2.50
2022-08-23T10:48:29.330Z,2.53
2022-08-23T10:52:56.947Z,3.38
2022-08-23T10:57:09.646Z,2.83
2022-08-23T11:01:33.775Z,2.78
2022-08-23T11:06:25.795Z,2.60
2022-08-23T11:10:39.047Z,2.20
2022-08-23T11:15:18.148Z,2.10
2022-08-23T11:19:50.566Z,2.30
2022-08-23T11:24:02.518Z,2.25
2022-08-23T11:28:23.894Z,2.72
2022-08-23T11:32:41.015Z,2.30
2022-08-23T11:37:18.821Z,1.95
2022-08-23T11:41:53.469Z,2.83
2022-08-23T11:46:25.657Z,2.45
2022-08-23T11:50:58.100Z,2.33
2022-08-23T11:55:48.891Z,2.33
2022-08-23T12:00:11.433Z,2.40
2022-08-23T12:04:37.686Z,2.58
2022-08-23T12:09:06.382Z,2.67
2022-08-23T12:13:18.343Z,2.63
2022-08-23T12:17:29.971Z,2.63
2022-08-23T12:21:52.191Z,3.17
2022-08-23T12:26:11.127Z,3.15
2022-08-23T12:30:35.700Z,2.22
2022-08-23T12:35:13.556Z,2.33
2022-08-23T12:39:37.287Z,3.17
2022-08-23T12:44:18.227Z,2.20
2022-08-23T12:48:33.991Z,2.10
2022-08-23T12:52:57.326Z,2.15
2022-08-23T12:57:15.906Z,2.38
2022-08-23T13:01:32.037Z,2.28
2022-08-23T13:05:47.531Z,1.77
2022-08-23T13:10:02.371Z,1.98
2022-08-23T13:14:33.716Z,2.00
2022-08-23T13:18:45.996Z,1.88
2022-08-23T13:23:04.295Z,1.88
2022-08-23T13:27:27.192Z,1.70
2022-08-23T13:32:03.343Z,1.77
2022-08-23T13:36:21.728Z,1.50
2022-08-23T13:40:56.873Z,1.80
2022-08-23T13:45:14.533Z,1.70
2022-08-23T13:49:29.010Z,1.58
2022-08-23T13:53:40.608Z,1.67
2022-08-23T13:57:52.512Z,1.73
2022-08-23T14:02:14.258Z,1.95
2022-08-23T14:06:25.836Z,1.80
2022-08-23T14:10:37.991Z,1.60
2022-08-23T14:14:50.309Z,1.60
2022-08-23T14:20:31.486Z,1.42
2022-08-23T14:23:35.561Z,1.77
2022-08-23T14:27:48.578Z,1.70
2022-08-23T14:32:00.649Z,1.63
2022-08-23T14:36:12.665Z,1.80
2022-08-23T14:40:24.363Z,1.48
2022-08-23T14:44:36.560Z,1.40
2022-08-23T14:48:48.337Z,1.50
2022-08-23T14:53:03.757Z,1.20
2022-08-23T14:57:15.445Z,1.80
2022-08-23T15:01:27.186Z,1.50
2022-08-23T15:05:38.870Z,1.40
2022-08-23T15:09:51.974Z,1.42
2022-08-23T15:14:03.684Z,1.45
2022-08-23T15:18:16.458Z,1.40
2022-08-23T15:22:28.132Z,1.55
2022-08-23T15:26:39.950Z,1.33
2022-08-23T15:30:52.249Z,1.38
2022-08-23T15:35:04.185Z,1.80
2022-08-23T15:39:15.989Z,1.40
2022-08-23T15:43:34.077Z,1.38
2022-08-23T15:47:52.779Z,1.83
2022-08-23T15:52:04.832Z,1.63
2022-08-23T15:56:21.070Z,1.17
2022-08-23T16:00:32.665Z,1.33
2022-08-23T16:04:44.379Z,1.38
2022-08-23T16:08:56.282Z,1.65
2022-08-23T16:13:07.872Z,1.20
2022-08-23T16:17:21.002Z,1.38
2022-08-23T16:21:35.464Z,1.50
2022-08-23T16:25:47.125Z,1.40
2022-08-23T16:29:58.783Z,1.20
2022-08-23T16:34:13.821Z,1.17
2022-08-23T16:38:25.432Z,1.35
2022-08-23T16:42:37.029Z,1.58
2022-08-23T16:46:48.642Z,1.25
2022-08-23T16:51:00.928Z,1.50
2022-08-23T16:55:12.826Z,1.35
2022-08-23T16:59:25.369Z,1.30
2022-08-23T17:03:37.090Z,1.42
2022-08-23T17:07:49.190Z,1.33
2022-08-23T17:12:01.032Z,1.30
2022-08-23T17:16:12.889Z,0.95
2022-08-23T17:20:26.557Z,1.13
2022-08-23T17:24:38.203Z,1.40
2022-08-23T17:28:49.912Z,1.20
2022-08-23T17:33:02.378Z,1.50
2022-08-23T17:37:20.409Z,1.40
2022-08-23T17:41:35.097Z,0.93
2022-08-23T17:45:50.106Z,1.27
2022-08-23T17:50:03.692Z,1.27
2022-08-23T17:54:15.939Z,1.30
2022-08-23T17:58:28.621Z,1.10
2022-08-23T18:02:40.505Z,1.10
2022-08-23T18:06:52.105Z,1.42
2022-08-23T18:11:03.891Z,1.30
2022-08-23T18:15:15.449Z,1.17
2022-08-23T18:19:27.018Z,1.30
2022-08-23T18:23:39.304Z,1.42
2022-08-23T18:28:09.930Z,1.45
2022-08-23T18:32:21.711Z,1.13
2022-08-23T18:36:33.771Z,1.30
2022-08-23T18:40:47.828Z,1.40
2022-08-23T18:44:59.453Z,1.52
2022-08-23T18:49:12.233Z,1.55
2022-08-23T18:53:23.927Z,2.17
2022-08-23T18:57:35.541Z,1.90
2022-08-23T19:01:47.405Z,1.58
2022-08-23T19:05:59.124Z,1.58
2022-08-23T19:10:10.782Z,1.70
2022-08-23T19:14:22.441Z,1.27
2022-08-23T19:18:34.117Z,1.50
2022-08-23T19:22:46.485Z,1.75
2022-08-23T19:26:58.901Z,1.77
2022-08-23T19:31:11.305Z,1.55
2022-08-23T19:35:23.084Z,1.95
2022-08-23T19:39:36.588Z,2.38
2022-08-23T19:43:48.250Z,2.50
2022-08-23T19:48:00.285Z,2.28
2022-08-23T19:52:12.286Z,1.90
2022-08-23T19:56:23.933Z,1.92
2022-08-23T20:00:36.463Z,2.40
2022-08-23T20:04:48.179Z,2.13
2022-08-23T20:09:00.038Z,2.17
2022-08-23T20:13:12.176Z,2.85
2022-08-23T20:17:23.951Z,3.00
2022-08-23T20:21:35.796Z,2.83
2022-08-23T20:25:47.562Z,3.25
2022-08-23T20:30:01.443Z,3.25
2022-08-23T20:34:13.671Z,2.70
2022-08-23T20:38:33.071Z,3.08
2022-08-23T20:42:45.792Z,3.30
2022-08-23T20:47:00.973Z,3.70
2022-08-23T20:51:14.563Z,3.47
2022-08-23T20:55:26.256Z,3.22
2022-08-23T20:59:42.292Z,3.47
2022-08-23T21:03:56.223Z,3.65
2022-08-23T21:08:08.427Z,4.05
2022-08-23T21:12:24.580Z,3.85
2022-08-23T21:16:36.257Z,3.75
2022-08-23T21:20:47.940Z,4.13
2022-08-23T21:25:04.062Z,3.20
2022-08-23T21:29:15.653Z,3.60
2022-08-23T21:33:27.233Z,3.67
2022-08-23T21:37:38.860Z,3.45
2022-08-23T21:41:50.932Z,3.78
2022-08-23T21:46:02.845Z,3.75
2022-08-23T21:50:14.817Z,3.67
2022-08-23T21:54:26.624Z,3.65
2022-08-23T21:58:38.232Z,3.90
2022-08-23T22:02:49.838Z,3.45
2022-08-23T22:07:01.515Z,3.65
2022-08-23T22:11:14.475Z,3.40
2022-08-23T22:15:26.033Z,3.75
2022-08-23T22:19:37.610Z,3.53
2022-08-23T22:23:49.252Z,3.70
2022-08-23T22:28:00.844Z,3.15
2022-08-23T22:32:12.515Z,3.95
2022-08-23T22:36:24.640Z,3.40
2022-08-23T22:40:36.281Z,3.80
2022-08-23T22:44:48.038Z,3.38
2022-08-23T22:49:00.217Z,3.60
2022-08-23T22:53:12.834Z,3.90
2022-08-23T22:57:24.439Z,4.13
2022-08-23T23:01:38.916Z,3.13
2022-08-23T23:05:50.619Z,3.10
2022-08-23T23:10:02.165Z,3.03
2022-08-23T23:14:16.368Z,3.00
2022-08-23T23:18:28.061Z,3.60
2022-08-23T23:22:39.670Z,3.00
2022-08-23T23:26:52.204Z,2.92
2022-08-23T23:31:04.410Z,3.22
2022-08-23T23:35:16.150Z,2.72
2022-08-23T23:39:28.457Z,2.97
2022-08-23T23:43:40.645Z,3.40
2022-08-23T23:47:52.401Z,4.10
2022-08-23T23:52:05.553Z,3.58
2022-08-23T23:56:18.704Z,3.50
